IST,Max TemperatureF,Mean TemperatureF,Min TemperatureF,Max Dew PointF,MeanDew PointF,Min DewpointF,Max Humidity, Mean Humidity, Min Humidity, Max Sea Level PressureIn, Mean Sea Level PressureIn, Min Sea Level PressureIn, Max VisibilityMiles, Mean VisibilityMiles, Min VisibilityMiles, Max Wind SpeedMPH, Mean Wind SpeedMPH, Max Gust SpeedMPH,PrecipitationIn, CloudCover, Events, WindDirDegrees
2013-2-1,57,52,48,52,48,46,94,83,64,29.92,29.84,29.77,6,6,2,22,13,,0.00,7,Rain,190
2013-2-2,63,57,51,55,49,45,88,75,43,30.27,30.14,29.95,6,6,5,12,6,,0.00,5,Rain,201
2013-2-3,68,57,46,50,45,41,93,69,36,30.33,30.27,30.14,6,6,6,10,3,,0.00,,,7
2013-2-4,77,60,44,50,43,34,87,56,20,30.21,30.13,30.01,6,6,6,12,3,,0.00,2,,113
2013-2-5,75,64,53,50,44,36,67,51,18,29.98,29.90,29.80,6,6,6,7,3,,0.00,5,,85
2013-2-6,64,60,55,55,49,45,77,69,52,30.01,29.86,29.71,6,6,4,23,8,,0.00,5,Rain-Thunderstorm,206
2013-2-7,68,62,55,54,48,43,88,67,41,30.12,30.07,30.00,6,6,5,14,8,,0.00,3,,159
2013-2-8,72,61,50,52,47,43,88,71,34,30.01,29.98,29.89,6,6,6,13,4,,0.00,3,,353
2013-2-9,70,61,52,50,47,43,82,67,30,30.06,30.05,30.01,6,6,6,8,3,,0.00,0,,0
2013-2-10,65,58,51,54,51,46,88,78,59,30.06,30.02,29.98,6,5,2,12,3,,0.00,5,,330
2013-2-11,65,60,53,53,49,43,82,71,37,30.06,30.03,29.98,6,6,5,14,6,,0.00,4,Rain,219
2013-2-12,64,58,51,50,47,44,88,72,37,30.15,30.09,30.04,6,6,0,9,6,,0.00,3,,141
2013-2-13,73,62,50,48,42,32,68,51,14,30.15,30.02,29.95,6,6,6,12,5,,0.00,5,,90
2013-2-14,69,68,62,53,40,34,63,34,18,29.94,29.90,29.89,6,6,4,13,6,,0.00,6,,110
2013-2-15,64,58,51,48,41,36,67,53,23,30.10,30.00,29.89,6,6,6,17,5,,0.00,2,,170
2013-2-16,63,56,49,54,47,37,94,75,51,30.15,30.10,30.06,6,5,1,17,8,26,0.00,5,Rain,181
2013-2-17,64,58,51,52,49,43,94,75,42,30.09,30.04,30.01,6,6,2,8,5,,0.00,3,Rain,219
2013-2-18,64,56,47,52,49,45,88,74,49,30.04,30.02,29.98,6,6,5,13,5,,0.00,4,,220
2013-2-19,64,58,53,52,48,43,82,68,38,30.12,30.07,30.04,6,6,6,12,5,,0.00,4,,217
2013-2-20,66,57,48,48,46,43,87,65,35,30.16,30.11,30.06,6,6,6,12,5,,0.00,1,,211
2013-2-21,73,60,48,46,41,34,82,53,15,30.15,30.07,29.95,6,6,6,12,4,,0.00,1,,23
2013-2-22,78,64,50,50,42,36,76,46,21,29.92,29.82,29.71,6,6,4,9,4,,0.00,4,,123
2013-2-23,66,62,57,55,52,45,88,71,54,30.15,30.01,29.86,6,4,2,16,7,,0.00,3,,206
2013-2-24,68,62,55,55,54,52,94,77,52,30.27,30.22,30.15,6,6,2,9,6,,0.00,4,Rain,281
2013-2-25,80,66,51,54,45,32,88,53,11,30.24,30.14,30.06,6,6,6,13,4,,0.00,5,,103
2013-2-26,82,68,55,50,43,36,72,44,12,30.07,30.02,29.98,6,6,6,8,3,,0.00,4,,297
2013-2-27,71,62,53,57,54,46,100,78,46,30.04,29.99,29.98,6,4,0,12,4,,0.00,4,Fog,223
2013-2-28,66,62,57,55,51,46,88,70,49,30.06,30.04,30.04,6,6,4,16,8,24,0.00,4,,225